createdAt,value
2022-12-08T00:01:13.882Z,149223.75
2022-12-08T00:03:40.738Z,149236.31
2022-12-08T00:06:31.178Z,149209.91
2022-12-08T00:09:15.437Z,149243.84
2022-12-08T00:11:41.267Z,149242.59
2022-12-08T00:14:07.053Z,149219.97
2022-12-08T00:16:32.835Z,149240.09
2022-12-08T00:18:58.647Z,149260.19
2022-12-08T00:21:24.428Z,149235.06
2022-12-08T00:23:50.244Z,149228.75
2022-12-08T00:26:16.036Z,149219.97
2022-12-08T00:28:41.786Z,149201.13
2022-12-08T00:31:11.403Z,149225.00
2022-12-08T00:33:37.485Z,149197.31
2022-12-08T00:36:12.368Z,149187.28
2022-12-08T00:38:39.403Z,149184.78
2022-12-08T00:41:12.670Z,149187.28
2022-12-08T00:43:38.651Z,149186.03
2022-12-08T00:46:04.658Z,149187.28
2022-12-08T00:48:30.582Z,149177.19
2022-12-08T00:50:56.501Z,149169.69
2022-12-08T00:53:22.390Z,149177.19
2022-12-08T00:55:48.326Z,149188.53
2022-12-08T00:58:14.191Z,149155.84
2022-12-08T01:00:41.560Z,149159.59
2022-12-08T01:03:12.076Z,149201.13
2022-12-08T01:05:38.399Z,149153.34
2022-12-08T01:08:08.267Z,149188.53
2022-12-08T01:10:35.873Z,149187.28
2022-12-08T01:13:01.759Z,149187.28
2022-12-08T01:15:27.556Z,149154.59
2022-12-08T01:17:53.288Z,149131.97
2022-12-08T01:20:19.084Z,149163.41
2022-12-08T01:22:44.900Z,149149.56
2022-12-08T01:25:10.706Z,149139.50
2022-12-08T01:27:36.555Z,149126.97
2022-12-08T01:30:03.245Z,149137.00
2022-12-08T01:32:29.250Z,149120.66
2022-12-08T01:34:55.096Z,149142.00
2022-12-08T01:37:20.908Z,149111.88
2022-12-08T01:39:46.763Z,149140.75
2022-12-08T01:42:22.881Z,149144.56
2022-12-08T01:44:58.653Z,149110.63
2022-12-08T01:47:30.203Z,149106.81
2022-12-08T01:49:56.057Z,149124.41
2022-12-08T01:52:34.977Z,149115.63
2022-12-08T01:55:26.790Z,149116.88
2022-12-08T01:57:58.035Z,149145.81
2022-12-08T02:00:24.042Z,149129.47
2022-12-08T02:02:57.450Z,149137.00
2022-12-08T02:05:32.681Z,149115.63
2022-12-08T02:08:01.063Z,149087.97
2022-12-08T02:10:29.628Z,149110.63
2022-12-08T02:12:57.927Z,149114.38
2022-12-08T02:15:38.146Z,149140.75
2022-12-08T02:18:39.055Z,149118.16
2022-12-08T02:21:48.074Z,149114.38
2022-12-08T02:24:44.447Z,149096.78
2022-12-08T02:27:22.387Z,149143.25
2022-12-08T02:30:03.116Z,149162.13
2022-12-08T02:32:41.406Z,149115.63
2022-12-08T02:35:35.804Z,149138.25
2022-12-08T02:38:15.027Z,149111.88
2022-12-08T02:41:21.238Z,149114.38
2022-12-08T02:43:51.830Z,149138.25
2022-12-08T02:46:25.548Z,149134.47
2022-12-08T02:48:52.193Z,149115.63
2022-12-08T02:51:18.926Z,149142.00
2022-12-08T02:53:45.872Z,149149.56
2022-12-08T02:56:53.987Z,149154.59
2022-12-08T02:59:50.566Z,149157.09
2022-12-08T03:02:33.348Z,149129.47
2022-12-08T03:05:36.061Z,149129.47
2022-12-08T03:08:43.826Z,149168.44
2022-12-08T03:11:32.855Z,149164.66
2022-12-08T03:14:01.343Z,149144.56
2022-12-08T03:16:29.622Z,149120.66
2022-12-08T03:19:02.591Z,149105.56
2022-12-08T03:21:33.137Z,149134.47
2022-12-08T03:24:01.456Z,149134.47
2022-12-08T03:26:38.781Z,149130.72
2022-12-08T03:29:04.971Z,149143.25
2022-12-08T03:31:34.177Z,149144.56
2022-12-08T03:34:02.069Z,149149.56
2022-12-08T03:36:28.224Z,149160.84
2022-12-08T03:38:54.285Z,149135.75
2022-12-08T03:41:21.653Z,149116.88
2022-12-08T03:43:58.606Z,149119.41
2022-12-08T03:48:52.928Z,149121.91
2022-12-08T03:51:18.883Z,149124.41
2022-12-08T03:53:45.455Z,149101.81
2022-12-08T03:56:22.657Z,149118.16
2022-12-08T03:58:49.434Z,149108.06
2022-12-08T04:01:16.052Z,149113.13
2022-12-08T04:03:41.787Z,149116.88
2022-12-08T04:06:07.839Z,149125.66
2022-12-08T04:08:34.121Z,149116.88
2022-12-08T04:11:00.060Z,149081.69
2022-12-08T04:13:25.845Z,149110.63
2022-12-08T04:15:51.685Z,149118.16
2022-12-08T04:18:17.797Z,149113.13
2022-12-08T04:20:44.857Z,149135.75
2022-12-08T04:23:12.295Z,149130.72
2022-12-08T04:25:38.805Z,149116.88
2022-12-08T04:28:05.326Z,149119.41
2022-12-08T04:30:32.442Z,149131.97
2022-12-08T04:32:58.927Z,149121.91
2022-12-08T04:35:24.929Z,149113.13
2022-12-08T04:37:51.322Z,149121.91
2022-12-08T04:40:17.897Z,149126.97
2022-12-08T04:42:44.235Z,149133.22
2022-12-08T04:45:10.405Z,149118.16
2022-12-08T04:47:36.377Z,149130.72
2022-12-08T04:50:09.850Z,149124.41
2022-12-08T04:52:41.670Z,149108.06
2022-12-08T04:55:07.981Z,149109.38
2022-12-08T04:57:34.046Z,149105.56
2022-12-08T04:59:59.895Z,149106.81
2022-12-08T05:02:25.794Z,149124.41
2022-12-08T05:04:51.648Z,149129.47
2022-12-08T05:07:17.436Z,149100.56
2022-12-08T05:09:44.159Z,149114.38
2022-12-08T05:12:09.967Z,149104.31
2022-12-08T05:14:35.835Z,149104.31
2022-12-08T05:17:06.271Z,149081.69
2022-12-08T05:19:35.084Z,149080.44
2022-12-08T05:22:00.871Z,149119.41
2022-12-08T05:24:26.719Z,149113.13
2022-12-08T05:26:52.471Z,149104.31
2022-12-08T05:29:18.275Z,149098.03
2022-12-08T05:31:44.066Z,149069.13
2022-12-08T05:34:09.896Z,149100.56
2022-12-08T05:36:35.707Z,149075.44
2022-12-08T05:39:01.512Z,149086.72
2022-12-08T05:41:27.361Z,149098.03
2022-12-08T05:43:53.161Z,149104.31
2022-12-08T05:46:19.113Z,149111.88
2022-12-08T05:48:44.966Z,149095.53
2022-12-08T05:51:23.095Z,149116.88
2022-12-08T05:53:50.753Z,149119.41
2022-12-08T05:56:17.264Z,149147.06
2022-12-08T05:58:43.521Z,149121.91
2022-12-08T06:01:27.800Z,149118.16
2022-12-08T06:03:55.107Z,149106.81
2022-12-08T06:06:21.045Z,149099.28
2022-12-08T06:08:47.168Z,149104.31
2022-12-08T06:11:21.144Z,149110.63
2022-12-08T06:13:47.801Z,149116.88
2022-12-08T06:16:13.682Z,149111.88
2022-12-08T06:18:39.511Z,149119.41
2022-12-08T06:21:11.051Z,149123.16
2022-12-08T06:23:37.494Z,149105.56
2022-12-08T06:26:06.272Z,149099.28
2022-12-08T06:28:32.995Z,149108.06
2022-12-08T06:30:59.041Z,149114.38
2022-12-08T06:33:25.974Z,149069.13
2022-12-08T06:35:52.522Z,149065.34
2022-12-08T06:38:18.591Z,149070.38
2022-12-08T06:40:44.448Z,149047.78
2022-12-08T06:43:10.244Z,149033.94
2022-12-08T06:45:36.072Z,149040.25
2022-12-08T06:48:02.436Z,149037.75
2022-12-08T06:50:28.312Z,149040.25
2022-12-08T06:53:03.068Z,149056.59
2022-12-08T06:58:16.882Z,149064.09
2022-12-08T07:00:43.122Z,149072.88
2022-12-08T07:03:10.794Z,149062.84
2022-12-08T07:05:37.555Z,149057.84
2022-12-08T07:08:04.630Z,149074.19
2022-12-08T07:10:30.589Z,149087.97
2022-12-08T07:12:56.406Z,149086.72
2022-12-08T07:15:22.192Z,149080.44
2022-12-08T07:17:48.448Z,149049.03
2022-12-08T07:20:14.702Z,149049.03
2022-12-08T07:22:40.563Z,149050.28
2022-12-08T07:25:07.207Z,149090.47
2022-12-08T07:27:32.965Z,149086.72
2022-12-08T07:29:58.740Z,149074.19
2022-12-08T07:32:24.639Z,149075.44
2022-12-08T07:34:50.420Z,149076.69
2022-12-08T07:37:16.176Z,149099.28
2022-12-08T07:39:42.405Z,149110.63
2022-12-08T07:42:08.227Z,149091.78
2022-12-08T07:44:34.030Z,149072.88
2022-12-08T07:46:59.771Z,149052.78
2022-12-08T07:49:25.595Z,149062.84
2022-12-08T07:51:51.445Z,149056.59
2022-12-08T07:54:17.266Z,149071.63
2022-12-08T07:56:43.051Z,149076.69
2022-12-08T07:59:08.837Z,149091.78
2022-12-08T08:01:35.399Z,149093.03
2022-12-08T08:04:04.511Z,149099.28
2022-12-08T08:06:32.651Z,149101.81
2022-12-08T08:08:58.690Z,149069.13
2022-12-08T08:11:24.552Z,149033.94
2022-12-08T08:13:50.917Z,149039.00
2022-12-08T08:16:17.974Z,149028.91
2022-12-08T08:18:47.311Z,149040.25
2022-12-08T08:21:43.993Z,149017.59
2022-12-08T08:23:58.902Z,148973.66
2022-12-08T08:26:24.758Z,148968.63
2022-12-08T08:28:50.666Z,148981.16
2022-12-08T08:31:16.572Z,148968.63
2022-12-08T08:33:42.480Z,149030.19
2022-12-08T08:36:09.004Z,148993.75
2022-12-08T08:38:38.585Z,148984.97
2022-12-08T08:41:09.185Z,149017.59
2022-12-08T08:43:38.318Z,148997.50
2022-12-08T08:46:06.191Z,149006.31
2022-12-08T08:48:32.669Z,148988.72
2022-12-08T08:51:07.580Z,148971.16
2022-12-08T08:53:33.406Z,148964.84
2022-12-08T08:56:00.211Z,148989.97
2022-12-08T08:58:28.316Z,149006.31
2022-12-08T09:00:54.206Z,148987.47
2022-12-08T09:03:20.029Z,149007.56
2022-12-08T09:05:45.874Z,149012.59
2022-12-08T09:08:11.853Z,149030.19
2022-12-08T09:10:37.781Z,149030.19
2022-12-08T09:13:03.583Z,149025.16
2022-12-08T09:15:29.448Z,149027.66
2022-12-08T09:17:55.276Z,149036.44
2022-12-08T09:20:21.151Z,149030.19
2022-12-08T09:22:47.010Z,149022.66
2022-12-08T09:25:13.210Z,149015.09
2022-12-08T09:27:39.037Z,149003.81
2022-12-08T09:30:05.854Z,148993.75
2022-12-08T09:32:31.834Z,148998.75
2022-12-08T09:34:57.625Z,148995.00
2022-12-08T09:37:23.459Z,149003.81
2022-12-08T09:39:49.264Z,148992.50
2022-12-08T09:42:27.070Z,148984.97
2022-12-08T09:45:00.660Z,148982.41
2022-12-08T09:47:36.130Z,148983.72
2022-12-08T09:50:17.320Z,148982.41
2022-12-08T09:53:17.190Z,148978.66
2022-12-08T09:55:51.450Z,148938.47
2022-12-08T09:58:51.146Z,148987.47
2022-12-08T10:01:18.992Z,149003.81
2022-12-08T10:03:46.334Z,149016.34
2022-12-08T10:06:21.231Z,148998.75
2022-12-08T10:09:12.809Z,148993.75
2022-12-08T10:11:51.202Z,148997.50
2022-12-08T10:14:45.341Z,148998.75
2022-12-08T10:17:15.345Z,149016.34
2022-12-08T10:19:43.195Z,149045.25
2022-12-08T10:22:20.005Z,149051.53
2022-12-08T10:25:13.469Z,149051.53
2022-12-08T10:27:39.384Z,149042.75
2022-12-08T10:30:12.895Z,149010.06
2022-12-08T10:32:39.153Z,149031.44
2022-12-08T10:35:07.026Z,149040.25
2022-12-08T10:37:33.529Z,149003.81
2022-12-08T10:40:11.805Z,149012.59
2022-12-08T10:42:41.686Z,149042.75
2022-12-08T10:45:32.621Z,149037.75
2022-12-08T10:48:15.356Z,149032.69
2022-12-08T10:50:41.061Z,149031.44
2022-12-08T10:53:07.277Z,149071.63
2022-12-08T10:55:51.351Z,149052.78
2022-12-08T10:58:26.975Z,149033.94
2022-12-08T11:01:14.091Z,149072.88
2022-12-08T11:03:50.326Z,149020.16
2022-12-08T11:06:25.212Z,149027.66
2022-12-08T11:08:54.336Z,149051.53
2022-12-08T11:11:29.099Z,149065.34
2022-12-08T11:13:55.552Z,149081.69
2022-12-08T11:16:22.604Z,149044.00
2022-12-08T11:18:56.093Z,149045.25
2022-12-08T11:21:34.005Z,149086.72
2022-12-08T11:24:18.389Z,149069.13
2022-12-08T11:26:59.668Z,149061.59
2022-12-08T11:29:27.368Z,149069.13
2022-12-08T11:31:59.092Z,149039.00
2022-12-08T11:34:27.783Z,149050.28
2022-12-08T11:36:55.221Z,149000.00
2022-12-08T11:39:21.844Z,149002.56
2022-12-08T11:41:49.202Z,149033.94
2022-12-08T11:44:40.904Z,149006.31
2022-12-08T11:47:22.542Z,149006.31
2022-12-08T11:49:56.018Z,149046.50
2022-12-08T11:52:44.599Z,149057.84
2022-12-08T11:55:36.937Z,149056.59
2022-12-08T11:58:20.756Z,149077.94
2022-12-08T12:00:46.841Z,149050.28
2022-12-08T12:03:37.971Z,149077.94
2022-12-08T12:09:32.200Z,149056.59
2022-12-08T12:12:16.817Z,149067.88
2022-12-08T12:15:18.829Z,149056.59
2022-12-08T12:17:50.485Z,149037.75
2022-12-08T12:20:27.193Z,149076.69
2022-12-08T12:23:07.486Z,149093.03
2022-12-08T12:25:35.579Z,149066.63
2022-12-08T12:28:08.664Z,149057.84
2022-12-08T12:31:01.219Z,149096.78
2022-12-08T12:33:30.067Z,149033.94
2022-12-08T12:36:01.258Z,149067.88
2022-12-08T12:38:52.432Z,149065.34
2022-12-08T12:41:28.328Z,149069.13
2022-12-08T12:44:24.359Z,149046.50
2022-12-08T12:46:50.051Z,149074.19
2022-12-08T12:49:43.049Z,149119.41
2022-12-08T12:52:14.657Z,149110.63
2022-12-08T12:55:04.198Z,149074.19
2022-12-08T12:57:50.429Z,149044.00
2022-12-08T13:00:19.590Z,149051.53
2022-12-08T13:02:50.656Z,149054.03
2022-12-08T13:05:29.283Z,149069.13
2022-12-08T13:08:00.037Z,149052.78
2022-12-08T13:10:31.851Z,149071.63
2022-12-08T13:13:15.770Z,149070.38
2022-12-08T13:16:15.569Z,149075.44
2022-12-08T13:18:56.937Z,149093.03
2022-12-08T13:21:30.495Z,149081.69
2022-12-08T13:24:13.814Z,149074.19
2022-12-08T13:26:47.145Z,149074.19
2022-12-08T13:29:14.891Z,149081.69
2022-12-08T13:32:19.592Z,149074.19
2022-12-08T13:34:55.403Z,149046.50
2022-12-08T17:12:22.936Z,149023.91
2022-12-08T17:14:48.741Z,149005.06
2022-12-08T17:17:14.572Z,149020.16
2022-12-08T17:19:40.400Z,149020.16
2022-12-08T17:22:06.162Z,149039.00
2022-12-08T17:24:32.047Z,149022.66
2022-12-08T17:27:06.044Z,149025.16
2022-12-08T17:29:33.221Z,149032.69
2022-12-08T17:31:59.286Z,149055.34
2022-12-08T17:34:25.355Z,149087.97
2022-12-08T17:36:51.498Z,149084.22
2022-12-08T17:39:18.973Z,149056.59
2022-12-08T17:41:48.157Z,149041.50
2022-12-08T17:44:17.002Z,149015.09
2022-12-08T17:46:47.676Z,149016.34
2022-12-08T17:49:20.553Z,149007.56
2022-12-08T17:51:48.943Z,148988.72
2022-12-08T17:54:18.909Z,149000.00
2022-12-08T17:56:45.281Z,149001.25
2022-12-08T17:59:12.423Z,148987.47
2022-12-08T18:01:39.299Z,148986.22
2022-12-08T18:04:06.766Z,148998.75
2022-12-08T18:06:33.090Z,148972.41
2022-12-08T18:09:00.254Z,148993.75
2022-12-08T18:11:27.759Z,148979.91
2022-12-08T18:13:55.120Z,149018.84
2022-12-08T18:16:24.158Z,149012.59
2022-12-08T18:18:50.518Z,149031.44
2022-12-08T18:21:23.002Z,149059.09
2022-12-08T18:23:49.946Z,149047.78
2022-12-08T18:26:16.232Z,149032.69
2022-12-08T18:28:42.286Z,149012.59
2022-12-08T18:31:13.407Z,149001.25
2022-12-08T18:33:41.017Z,149011.34
2022-12-08T18:36:28.144Z,149006.31
2022-12-08T18:38:55.031Z,149012.59
2022-12-08T18:41:25.085Z,148993.75
2022-12-08T18:43:56.388Z,148972.41
2022-12-08T18:46:23.381Z,149007.56
2022-12-08T18:48:50.553Z,148986.22
2022-12-08T18:51:22.583Z,148982.41
2022-12-08T18:53:49.424Z,148972.41
2022-12-08T18:56:30.478Z,148998.75
2022-12-08T18:59:02.833Z,148979.91
2022-12-08T19:01:30.357Z,148995.00
2022-12-08T19:04:26.792Z,149008.81
2022-12-08T19:06:45.302Z,149001.25
2022-12-08T19:09:12.203Z,148997.50
2022-12-08T19:11:38.429Z,149031.44
2022-12-08T19:14:04.701Z,149001.25
2022-12-08T19:16:30.726Z,149001.25
2022-12-08T19:18:56.672Z,148958.56
2022-12-08T19:21:23.871Z,148996.25
2022-12-08T19:23:51.936Z,148988.72
2022-12-08T19:26:19.068Z,148998.75
2022-12-08T19:28:44.974Z,148991.25
2022-12-08T19:31:11.004Z,148976.16
2022-12-08T19:33:38.096Z,148974.91
2022-12-08T19:36:09.989Z,148966.13
2022-12-08T19:38:55.837Z,148973.66
2022-12-08T19:41:41.299Z,148988.72
2022-12-08T19:44:15.337Z,148986.22
2022-12-08T19:46:41.352Z,148995.00
2022-12-08T19:49:07.277Z,148974.91
2022-12-08T19:51:33.539Z,148986.22
2022-12-08T19:53:59.614Z,148987.47
2022-12-08T19:56:25.402Z,148992.50
2022-12-08T19:58:51.408Z,148962.31
2022-12-08T20:01:17.407Z,148984.97
2022-12-08T20:03:43.529Z,149007.56
2022-12-08T20:06:15.140Z,148986.22
2022-12-08T20:08:43.759Z,149013.84
2022-12-08T20:11:13.519Z,148976.16
2022-12-08T20:13:44.500Z,149016.34
2022-12-08T20:16:11.544Z,148984.97
2022-12-08T20:18:39.123Z,148983.72
2022-12-08T20:21:05.709Z,148961.06
2022-12-08T20:23:32.336Z,148987.47
2022-12-08T20:25:58.718Z,148982.41
2022-12-08T20:28:24.643Z,148983.72
2022-12-08T20:30:50.945Z,148982.41
2022-12-08T20:33:18.549Z,148949.78
2022-12-08T20:35:47.248Z,148976.16
2022-12-08T20:38:13.234Z,148943.50
2022-12-08T20:40:43.697Z,148934.72
2022-12-08T20:43:09.679Z,148938.47
2022-12-08T20:45:35.706Z,148935.97
2022-12-08T20:48:01.617Z,148940.97
2022-12-08T20:50:27.923Z,148978.66
2022-12-08T20:52:53.757Z,148956.06
2022-12-08T20:55:19.648Z,148943.50
2022-12-08T20:57:45.572Z,148934.72
2022-12-08T21:00:12.287Z,148912.06
2022-12-08T21:02:43.311Z,148937.22
2022-12-08T21:05:13.229Z,148927.16
2022-12-08T21:07:39.174Z,148939.72
2022-12-08T21:10:06.357Z,148954.81
2022-12-08T21:12:32.821Z,148956.06
2022-12-08T21:14:59.024Z,148934.72
2022-12-08T21:17:25.422Z,148954.81
2022-12-08T21:19:51.680Z,148947.25
2022-12-08T21:22:17.869Z,148961.06
2022-12-08T21:24:43.870Z,148959.81
2022-12-08T21:27:09.887Z,148959.81
2022-12-08T21:29:35.828Z,148946.00
2022-12-08T21:32:01.751Z,148944.75
2022-12-08T21:34:31.124Z,148942.22
2022-12-08T21:36:57.814Z,148930.97
2022-12-08T21:39:23.764Z,148919.63
2022-12-08T21:42:08.291Z,148948.53
2022-12-08T21:44:36.943Z,148918.38
2022-12-08T21:47:04.020Z,148914.63
2022-12-08T21:49:29.903Z,148904.56
2022-12-08T21:51:55.958Z,148913.38
2022-12-08T21:54:21.810Z,148930.97
2022-12-08T21:56:49.079Z,148939.72
2022-12-08T21:59:16.100Z,148902.06
2022-12-08T22:01:45.304Z,148905.81
2022-12-08T22:04:15.077Z,148885.72
2022-12-08T22:06:41.232Z,148902.06
2022-12-08T22:09:09.666Z,148919.63
2022-12-08T22:11:35.745Z,148913.38
2022-12-08T22:14:01.632Z,148923.41
2022-12-08T22:16:27.640Z,148919.63
2022-12-08T22:18:53.840Z,148933.47
2022-12-08T22:21:20.419Z,148969.88
2022-12-08T22:23:46.345Z,148966.13
2022-12-08T22:26:12.179Z,148981.16
2022-12-08T22:28:40.385Z,148986.22
2022-12-08T22:31:14.333Z,148976.16
2022-12-08T22:33:41.006Z,148963.59
2022-12-08T22:36:13.080Z,148972.41
2022-12-08T22:38:39.862Z,148961.06
2022-12-08T22:41:06.605Z,148979.91
2022-12-08T22:43:33.554Z,148972.41
2022-12-08T22:45:59.495Z,148974.91
2022-12-08T22:48:25.460Z,148969.88
2022-12-08T22:50:51.395Z,148919.63
2022-12-08T22:53:17.273Z,148930.97
2022-12-08T22:55:44.156Z,148904.56
2022-12-08T22:58:13.471Z,148928.41
2022-12-08T23:00:39.475Z,148951.06
2022-12-08T23:03:05.926Z,148964.84
2022-12-08T23:05:37.221Z,148957.31
2022-12-08T23:08:04.890Z,148974.91
2022-12-08T23:10:31.748Z,148987.47
2022-12-08T23:13:03.507Z,148969.88
2022-12-08T23:15:30.097Z,148969.88
2022-12-08T23:17:56.197Z,148972.41
2022-12-08T23:20:22.096Z,148937.22
2022-12-08T23:22:48.059Z,148925.91
2022-12-08T23:25:13.855Z,148929.66
2022-12-08T23:27:39.914Z,148934.72
2022-12-08T23:30:07.620Z,148947.25
2022-12-08T23:32:34.034Z,148968.63
2022-12-08T23:34:59.943Z,148948.53
2022-12-08T23:37:27.458Z,148951.06
2022-12-08T23:39:53.315Z,148953.56
2022-12-08T23:42:19.172Z,148958.56
2022-12-08T23:44:45.107Z,148969.88
2022-12-08T23:47:11.019Z,148940.97
2022-12-08T23:49:37.092Z,148982.41
2022-12-08T23:52:03.548Z,148884.47
2022-12-08T23:54:29.502Z,148940.97
2022-12-08T23:56:55.499Z,148930.97
2022-12-08T23:59:21.322Z,148927.16
